sensor_id;sensor_type;location;lat;lon;timestamp;pressure;altitude;pressure_sealevel;temperature;humidity
75317;BME280;63913;51.492;10.368;2023-04-21T00:02:17;98391.31;;;7.82;87.49
75317;BME280;63913;51.492;10.368;2023-04-21T00:04:42;98390.44;;;7.81;87.62
75317;BME280;63913;51.492;10.368;2023-04-21T00:07:10;98385.38;;;7.83;87.46
75317;BME280;63913;51.492;10.368;2023-04-21T00:09:35;98387.06;;;7.82;87.54
75317;BME280;63913;51.492;10.368;2023-04-21T00:12:01;98387.19;;;7.87;87.53
75317;BME280;63913;51.492;10.368;2023-04-21T00:14:26;98389.97;;;7.93;86.94
75317;BME280;63913;51.492;10.368;2023-04-21T00:16:51;98387.34;;;7.91;87.16
75317;BME280;63913;51.492;10.368;2023-04-21T00:19:18;98377.22;;;7.96;86.90
75317;BME280;63913;51.492;10.368;2023-04-21T00:21:44;98365.94;;;7.89;86.95
75317;BME280;63913;51.492;10.368;2023-04-21T00:24:10;98373.56;;;7.86;87.15
75317;BME280;63913;51.492;10.368;2023-04-21T00:26:35;98368.56;;;7.91;87.17
75317;BME280;63913;51.492;10.368;2023-04-21T00:29:01;98373.72;;;7.92;87.24
75317;BME280;63913;51.492;10.368;2023-04-21T00:31:26;98371.00;;;7.88;87.63
75317;BME280;63913;51.492;10.368;2023-04-21T00:33:51;98369.28;;;7.87;87.35
75317;BME280;63913;51.492;10.368;2023-04-21T00:36:20;98365.75;;;7.83;87.56
75317;BME280;63913;51.492;10.368;2023-04-21T00:38:45;98369.31;;;7.88;87.49
75317;BME280;63913;51.492;10.368;2023-04-21T00:41:13;98359.91;;;7.87;87.40
75317;BME280;63913;51.492;10.368;2023-04-21T00:43:58;98359.88;;;7.86;87.77
75317;BME280;63913;51.492;10.368;2023-04-21T00:46:24;98355.47;;;7.82;87.67
75317;BME280;63913;51.492;10.368;2023-04-21T00:48:49;98350.47;;;7.85;87.56
75317;BME280;63913;51.492;10.368;2023-04-21T00:51:15;98350.34;;;7.82;87.82
75317;BME280;63913;51.492;10.368;2023-04-21T00:53:40;98348.56;;;7.79;88.18
75317;BME280;63913;51.492;10.368;2023-04-21T00:56:06;98354.47;;;7.77;88.03
75317;BME280;63913;51.492;10.368;2023-04-21T00:58:34;98344.97;;;7.73;87.95
75317;BME280;63913;51.492;10.368;2023-04-21T01:01:01;98337.97;;;7.67;88.43
75317;BME280;63913;51.492;10.368;2023-04-21T01:03:26;98349.03;;;7.66;88.56
75317;BME280;63913;51.492;10.368;2023-04-21T01:05:52;98345.47;;;7.61;88.67
75317;BME280;63913;51.492;10.368;2023-04-21T01:08:17;98349.59;;;7.57;88.85
75317;BME280;63913;51.492;10.368;2023-04-21T01:10:43;98345.25;;;7.55;88.85
75317;BME280;63913;51.492;10.368;2023-04-21T01:13:08;98343.47;;;7.52;89.31
75317;BME280;63913;51.492;10.368;2023-04-21T01:15:33;98354.59;;;7.53;89.22
75317;BME280;63913;51.492;10.368;2023-04-21T01:17:59;98356.34;;;7.55;89.39
75317;BME280;63913;51.492;10.368;2023-04-21T01:20:25;98351.22;;;7.54;89.11
75317;BME280;63913;51.492;10.368;2023-04-21T01:22:50;98357.16;;;7.54;89.24
75317;BME280;63913;51.492;10.368;2023-04-21T01:25:16;98360.66;;;7.56;89.59
75317;BME280;63913;51.492;10.368;2023-04-21T01:27:44;98362.34;;;7.56;89.51
75317;BME280;63913;51.492;10.368;2023-04-21T01:30:09;98364.84;;;7.54;89.56
75317;BME280;63913;51.492;10.368;2023-04-21T01:32:35;98352.91;;;7.55;89.56
75317;BME280;63913;51.492;10.368;2023-04-21T01:35:00;98359.94;;;7.60;89.65
75317;BME280;63913;51.492;10.368;2023-04-21T01:37:28;98365.06;;;7.60;89.30
75317;BME280;63913;51.492;10.368;2023-04-21T01:39:56;98354.78;;;7.59;89.66
75317;BME280;63913;51.492;10.368;2023-04-21T01:42:24;98360.88;;;7.64;89.46
75317;BME280;63913;51.492;10.368;2023-04-21T01:44:50;98356.75;;;7.68;89.02
75317;BME280;63913;51.492;10.368;2023-04-21T01:47:18;98359.38;;;7.69;88.96
75317;BME280;63913;51.492;10.368;2023-04-21T01:49:44;98348.97;;;7.64;89.38
75317;BME280;63913;51.492;10.368;2023-04-21T01:52:11;98349.03;;;7.66;89.27
75317;BME280;63913;51.492;10.368;2023-04-21T01:54:36;98352.44;;;7.66;89.11
75317;BME280;63913;51.492;10.368;2023-04-21T01:57:02;98362.69;;;7.66;89.36
75317;BME280;63913;51.492;10.368;2023-04-21T01:59:27;98348.16;;;7.65;89.41
75317;BME280;63913;51.492;10.368;2023-04-21T02:01:53;98349.88;;;7.66;89.20
75317;BME280;63913;51.492;10.368;2023-04-21T02:04:18;98349.88;;;7.66;89.40
75317;BME280;63913;51.492;10.368;2023-04-21T02:06:44;98351.47;;;7.63;89.52
75317;BME280;63913;51.492;10.368;2023-04-21T02:09:10;98349.84;;;7.65;89.56
75317;BME280;63913;51.492;10.368;2023-04-21T02:11:35;98343.91;;;7.66;89.51
75317;BME280;63913;51.492;10.368;2023-04-21T02:14:00;98357.44;;;7.62;89.53
75317;BME280;63913;51.492;10.368;2023-04-21T02:16:26;98358.16;;;7.58;89.51
75317;BME280;63913;51.492;10.368;2023-04-21T02:18:52;98358.97;;;7.57;89.93
75317;BME280;63913;51.492;10.368;2023-04-21T02:21:18;98355.53;;;7.56;89.74
75317;BME280;63913;51.492;10.368;2023-04-21T02:23:45;98358.97;;;7.57;89.86
75317;BME280;63913;51.492;10.368;2023-04-21T02:26:10;98356.41;;;7.57;89.66
75317;BME280;63913;51.492;10.368;2023-04-21T02:28:35;98352.06;;;7.54;89.60
75317;BME280;63913;51.492;10.368;2023-04-21T02:31:01;98362.22;;;7.51;89.97
75317;BME280;63913;51.492;10.368;2023-04-21T02:33:26;98360.66;;;7.56;90.00
75317;BME280;63913;51.492;10.368;2023-04-21T02:35:51;98364.19;;;7.60;89.75
75317;BME280;63913;51.492;10.368;2023-04-21T02:38:17;98365.00;;;7.59;89.68
75317;BME280;63913;51.492;10.368;2023-04-21T02:40:42;98365.88;;;7.59;89.89
75317;BME280;63913;51.492;10.368;2023-04-21T02:43:07;98361.63;;;7.60;89.72
75317;BME280;63913;51.492;10.368;2023-04-21T02:45:33;98361.81;;;7.66;89.84
75317;BME280;63913;51.492;10.368;2023-04-21T02:47:58;98363.56;;;7.67;89.82
75317;BME280;63913;51.492;10.368;2023-04-21T02:50:24;98370.47;;;7.70;89.61
75317;BME280;63913;51.492;10.368;2023-04-21T02:52:49;98365.31;;;7.68;89.69
75317;BME280;63913;51.492;10.368;2023-04-21T02:55:15;98367.75;;;7.65;89.86
75317;BME280;63913;51.492;10.368;2023-04-21T02:57:40;98362.56;;;7.63;89.90
75317;BME280;63913;51.492;10.368;2023-04-21T03:00:06;98368.63;;;7.65;89.86
75317;BME280;63913;51.492;10.368;2023-04-21T03:02:32;98366.00;;;7.64;89.87
75317;BME280;63913;51.492;10.368;2023-04-21T03:04:57;98366.81;;;7.63;89.86
75317;BME280;63913;51.492;10.368;2023-04-21T03:07:22;98367.69;;;7.63;89.85
75317;BME280;63913;51.492;10.368;2023-04-21T03:09:48;98360.00;;;7.62;90.30
75317;BME280;63913;51.492;10.368;2023-04-21T03:12:13;98364.31;;;7.64;89.99
75317;BME280;63913;51.492;10.368;2023-04-21T03:14:39;98364.31;;;7.64;90.21
75317;BME280;63913;51.492;10.368;2023-04-21T03:17:05;98360.06;;;7.65;90.10
75317;BME280;63913;51.492;10.368;2023-04-21T03:19:30;98354.25;;;7.71;90.11
75317;BME280;63913;51.492;10.368;2023-04-21T03:21:57;98362.78;;;7.70;90.04
75317;BME280;63913;51.492;10.368;2023-04-21T03:24:22;98348.19;;;7.67;90.00
75317;BME280;63913;51.492;10.368;2023-04-21T03:26:47;98340.53;;;7.67;90.00
75317;BME280;63913;51.492;10.368;2023-04-21T03:29:13;98345.69;;;7.69;90.00
75317;BME280;63913;51.492;10.368;2023-04-21T03:31:38;98347.34;;;7.66;89.89
75317;BME280;63913;51.492;10.368;2023-04-21T03:34:04;98347.22;;;7.63;90.35
75317;BME280;63913;51.492;10.368;2023-04-21T03:36:29;98338.69;;;7.63;90.36
75317;BME280;63913;51.492;10.368;2023-04-21T03:38:55;98346.34;;;7.61;90.17
75317;BME280;63913;51.492;10.368;2023-04-21T03:41:22;98347.16;;;7.60;90.29
75317;BME280;63913;51.492;10.368;2023-04-21T03:43:49;98347.16;;;7.60;90.26
75317;BME280;63913;51.492;10.368;2023-04-21T03:46:18;98356.31;;;7.54;90.35
75317;BME280;63913;51.492;10.368;2023-04-21T03:48:44;98347.03;;;7.57;90.51
75317;BME280;63913;51.492;10.368;2023-04-21T03:51:09;98346.94;;;7.54;90.45
75317;BME280;63913;51.492;10.368;2023-04-21T03:53:35;98351.22;;;7.54;90.43
75317;BME280;63913;51.492;10.368;2023-04-21T03:56:00;98350.22;;;7.50;90.81
75317;BME280;63913;51.492;10.368;2023-04-21T03:58:26;98348.44;;;7.48;90.92
75317;BME280;63913;51.492;10.368;2023-04-21T04:00:51;98349.25;;;7.47;91.03
75317;BME280;63913;51.492;10.368;2023-04-21T04:03:16;98339.06;;;7.48;90.72
75317;BME280;63913;51.492;10.368;2023-04-21T04:05:42;98349.19;;;7.44;90.74
75317;BME280;63913;51.492;10.368;2023-04-21T04:08:07;98351.72;;;7.44;90.61
75317;BME280;63913;51.492;10.368;2023-04-21T04:10:32;98354.13;;;7.39;90.79
75317;BME280;63913;51.492;10.368;2023-04-21T04:12:58;98348.88;;;7.35;91.00
75317;BME280;63913;51.492;10.368;2023-04-21T04:15:23;98353.22;;;7.37;91.08
75317;BME280;63913;51.492;10.368;2023-04-21T04:17:48;98352.31;;;7.35;90.88
75317;BME280;63913;51.492;10.368;2023-04-21T04:20:14;98350.69;;;7.37;91.02
75317;BME280;63913;51.492;10.368;2023-04-21T04:22:39;98339.72;;;7.41;90.67
75317;BME280;63913;51.492;10.368;2023-04-21T04:25:04;98348.88;;;7.35;91.02
75317;BME280;63913;51.492;10.368;2023-04-21T04:27:30;98348.06;;;7.36;90.98
75317;BME280;63913;51.492;10.368;2023-04-21T04:29:56;98351.44;;;7.35;91.18
75317;BME280;63913;51.492;10.368;2023-04-21T04:32:21;98343.72;;;7.33;91.25
75317;BME280;63913;51.492;10.368;2023-04-21T04:34:47;98347.13;;;7.34;91.02
75317;BME280;63913;51.492;10.368;2023-04-21T04:37:12;98351.19;;;7.27;91.20
75317;BME280;63913;51.492;10.368;2023-04-21T04:39:38;98352.69;;;7.22;91.31
75317;BME280;63913;51.492;10.368;2023-04-21T04:42:06;98350.16;;;7.22;91.34
75317;BME280;63913;51.492;10.368;2023-04-21T04:44:33;98349.34;;;7.23;91.20
75317;BME280;63913;51.492;10.368;2023-04-21T04:46:59;98348.47;;;7.22;91.16
75317;BME280;63913;51.492;10.368;2023-04-21T04:49:27;98356.19;;;7.24;91.58
75317;BME280;63913;51.492;10.368;2023-04-21T04:51:52;98351.88;;;7.23;91.56
75317;BME280;63913;51.492;10.368;2023-04-21T04:54:17;98349.25;;;7.20;91.58
75317;BME280;63913;51.492;10.368;2023-04-21T04:56:43;98353.56;;;7.22;91.90
75317;BME280;63913;51.492;10.368;2023-04-21T04:59:08;98349.34;;;7.23;91.43
75317;BME280;63913;51.492;10.368;2023-04-21T05:01:33;98350.19;;;7.23;91.21
75317;BME280;63913;51.492;10.368;2023-04-21T05:03:59;98345.09;;;7.23;91.17
75317;BME280;63913;51.492;10.368;2023-04-21T05:06:24;98355.38;;;7.25;91.23
75317;BME280;63913;51.492;10.368;2023-04-21T05:08:50;98357.94;;;7.25;91.14
75317;BME280;63913;51.492;10.368;2023-04-21T05:11:15;98360.50;;;7.25;91.35
75317;BME280;63913;51.492;10.368;2023-04-21T05:13:41;98354.66;;;7.29;90.86
75317;BME280;63913;51.492;10.368;2023-04-21T05:16:07;98359.06;;;7.33;90.72
75317;BME280;63913;51.492;10.368;2023-04-21T05:18:33;98355.63;;;7.33;90.90
75317;BME280;63913;51.492;10.368;2023-04-21T05:20:59;98360.84;;;7.36;90.53
75317;BME280;63913;51.492;10.368;2023-04-21T05:23:24;98364.28;;;7.36;90.50
75317;BME280;63913;51.492;10.368;2023-04-21T05:25:50;98365.97;;;7.36;90.48
75317;BME280;63913;51.492;10.368;2023-04-21T05:28:15;98361.78;;;7.38;90.38
75317;BME280;63913;51.492;10.368;2023-04-21T05:30:40;98363.47;;;7.39;90.51
75317;BME280;63913;51.492;10.368;2023-04-21T05:33:06;98364.34;;;7.38;90.73
75317;BME280;63913;51.492;10.368;2023-04-21T05:35:32;98363.47;;;7.37;90.64
75317;BME280;63913;51.492;10.368;2023-04-21T05:37:57;98366.88;;;7.38;90.55
75317;BME280;63913;51.492;10.368;2023-04-21T05:40:22;98370.34;;;7.40;90.74
75317;BME280;63913;51.492;10.368;2023-04-21T05:42:48;98363.53;;;7.40;90.88
75317;BME280;63913;51.492;10.368;2023-04-21T05:45:13;98362.63;;;7.38;91.03
75317;BME280;63913;51.492;10.368;2023-04-21T05:47:39;98358.47;;;7.42;90.73
75317;BME280;63913;51.492;10.368;2023-04-21T05:50:05;98355.88;;;7.40;90.95
75317;BME280;63913;51.492;10.368;2023-04-21T05:52:31;98365.34;;;7.43;90.97
75317;BME280;63913;51.492;10.368;2023-04-21T05:54:57;98355.25;;;7.47;90.82
75317;BME280;63913;51.492;10.368;2023-04-21T05:57:26;98359.69;;;7.53;90.51
75317;BME280;63913;51.492;10.368;2023-04-21T05:59:51;98356.34;;;7.55;90.47
75317;BME280;63913;51.492;10.368;2023-04-21T06:02:17;98355.66;;;7.59;90.51
75317;BME280;63913;51.492;10.368;2023-04-21T06:04:42;98365.13;;;7.63;90.36
75317;BME280;63913;51.492;10.368;2023-04-21T06:07:08;98365.31;;;7.68;89.87
75317;BME280;63913;51.492;10.368;2023-04-21T06:09:35;98353.59;;;7.76;89.62
75317;BME280;63913;51.492;10.368;2023-04-21T06:12:02;98358.84;;;7.81;89.36
75317;BME280;63913;51.492;10.368;2023-04-21T06:14:27;98361.56;;;7.85;88.99
75317;BME280;63913;51.492;10.368;2023-04-21T06:16:53;98357.44;;;7.90;88.66
75317;BME280;63913;51.492;10.368;2023-04-21T06:19:18;98355.00;;;7.95;88.36
75317;BME280;63913;51.492;10.368;2023-04-21T06:21:43;98352.66;;;8.01;88.22
75317;BME280;63913;51.492;10.368;2023-04-21T06:24:09;98343.34;;;8.04;87.70
75317;BME280;63913;51.492;10.368;2023-04-21T06:26:34;98351.25;;;8.11;87.69
75317;BME280;63913;51.492;10.368;2023-04-21T06:29:00;98347.94;;;8.15;87.74
75317;BME280;63913;51.492;10.368;2023-04-21T06:31:25;98348.06;;;8.19;87.42
75317;BME280;63913;51.492;10.368;2023-04-21T06:33:51;98351.69;;;8.26;87.25
75317;BME280;63913;51.492;10.368;2023-04-21T06:36:16;98342.47;;;8.31;86.94
75317;BME280;63913;51.492;10.368;2023-04-21T06:38:41;98347.75;;;8.37;86.88
75317;BME280;63913;51.492;10.368;2023-04-21T06:41:08;98351.34;;;8.42;86.34
75317;BME280;63913;51.492;10.368;2023-04-21T06:43:33;98342.19;;;8.52;86.03
75317;BME280;63913;51.492;10.368;2023-04-21T06:45:59;98346.59;;;8.56;85.53
75317;BME280;63913;51.492;10.368;2023-04-21T06:48:24;98338.13;;;8.60;85.69
75317;BME280;63913;51.492;10.368;2023-04-21T06:50:50;98345.97;;;8.64;84.73
75317;BME280;63913;51.492;10.368;2023-04-21T06:53:16;98341.81;;;8.69;84.41
75317;BME280;63913;51.492;10.368;2023-04-21T06:55:42;98341.91;;;8.72;84.09
75317;BME280;63913;51.492;10.368;2023-04-21T06:58:08;98337.81;;;8.79;83.90
75317;BME280;63913;51.492;10.368;2023-04-21T07:00:33;98338.69;;;8.79;84.02
75317;BME280;63913;51.492;10.368;2023-04-21T07:02:58;98339.72;;;8.86;83.86
75317;BME280;63913;51.492;10.368;2023-04-21T07:05:24;98338.97;;;8.90;83.69
75317;BME280;63913;51.492;10.368;2023-04-21T07:07:50;98340.91;;;8.99;82.73
75317;BME280;63913;51.492;10.368;2023-04-21T07:10:15;98346.16;;;9.03;82.08
75317;BME280;63913;51.492;10.368;2023-04-21T07:12:44;98338.69;;;9.12;82.26
75317;BME280;63913;51.492;10.368;2023-04-21T07:15:11;98351.63;;;9.17;82.55
75317;BME280;63913;51.492;10.368;2023-04-21T07:17:36;98344.97;;;9.25;81.49
75317;BME280;63913;51.492;10.368;2023-04-21T07:20:02;98336.53;;;9.29;81.38
75317;BME280;63913;51.492;10.368;2023-04-21T07:22:27;98342.81;;;9.42;81.57
75317;BME280;63913;51.492;10.368;2023-04-21T07:24:52;98349.75;;;9.44;80.86
75317;BME280;63913;51.492;10.368;2023-04-21T07:27:18;98350.69;;;9.48;80.66
75317;BME280;63913;51.492;10.368;2023-04-21T07:29:43;98349.13;;;9.54;81.21
75317;BME280;63913;51.492;10.368;2023-04-21T07:32:09;98352.63;;;9.58;79.56
75317;BME280;63913;51.492;10.368;2023-04-21T07:34:35;98347.66;;;9.64;79.83
75317;BME280;63913;51.492;10.368;2023-04-21T07:37:00;98351.16;;;9.68;79.81
75317;BME280;63913;51.492;10.368;2023-04-21T07:39:26;98350.50;;;9.76;79.88
75317;BME280;63913;51.492;10.368;2023-04-21T07:41:51;98348.88;;;9.81;79.63
75317;BME280;63913;51.492;10.368;2023-04-21T07:44:18;98349.75;;;9.82;79.67
75317;BME280;63913;51.492;10.368;2023-04-21T07:46:43;98339.72;;;9.92;80.50
75317;BME280;63913;51.492;10.368;2023-04-21T07:49:08;98346.06;;;10.08;78.94
75317;BME280;63913;51.492;10.368;2023-04-21T07:51:34;98353.72;;;10.07;79.30
75317;BME280;63913;51.492;10.368;2023-04-21T07:53:59;98346.19;;;10.14;78.70
75317;BME280;63913;51.492;10.368;2023-04-21T07:56:25;98347.06;;;10.15;78.79
75317;BME280;63913;51.492;10.368;2023-04-21T07:58:51;98339.53;;;10.22;78.45
75317;BME280;63913;51.492;10.368;2023-04-21T08:01:16;98340.56;;;10.30;77.37
75317;BME280;63913;51.492;10.368;2023-04-21T08:03:42;98339.06;;;10.40;77.62
75317;BME280;63913;51.492;10.368;2023-04-21T08:06:07;98330.66;;;10.49;76.63
75317;BME280;63913;51.492;10.368;2023-04-21T08:08:32;98341.09;;;10.56;75.69
75317;BME280;63913;51.492;10.368;2023-04-21T08:10:58;98343.78;;;10.61;76.29
75317;BME280;63913;51.492;10.368;2023-04-21T08:13:23;98329.28;;;10.66;75.97
75317;BME280;63913;51.492;10.368;2023-04-21T08:15:53;98330.28;;;10.73;75.50
75317;BME280;63913;51.492;10.368;2023-04-21T08:18:18;98315.81;;;10.78;74.96
75317;BME280;63913;51.492;10.368;2023-04-21T08:20:44;98330.47;;;10.83;75.10
75317;BME280;63913;51.492;10.368;2023-04-21T08:23:15;98336.69;;;10.96;73.70
75317;BME280;63913;51.492;10.368;2023-04-21T08:25:40;98330.81;;;11.03;74.33
75317;BME280;63913;51.492;10.368;2023-04-21T08:28:06;98322.38;;;11.08;73.32
75317;BME280;63913;51.492;10.368;2023-04-21T08:30:32;98331.75;;;11.06;74.06
75317;BME280;63913;51.492;10.368;2023-04-21T08:32:57;98318.25;;;11.20;73.17
75317;BME280;63913;51.492;10.368;2023-04-21T08:35:23;98320.13;;;11.30;72.93
75317;BME280;63913;51.492;10.368;2023-04-21T08:37:48;98327.19;;;11.40;72.27
75317;BME280;63913;51.492;10.368;2023-04-21T08:40:14;98320.34;;;11.43;72.87
75317;BME280;63913;51.492;10.368;2023-04-21T08:42:39;98317.19;;;11.61;72.67
75317;BME280;63913;51.492;10.368;2023-04-21T08:45:05;98322.53;;;11.72;71.13
75317;BME280;63913;51.492;10.368;2023-04-21T08:47:37;98328.22;;;12.07;70.21
75317;BME280;63913;51.492;10.368;2023-04-21T08:50:02;98324.34;;;12.42;67.72
75317;BME280;63913;51.492;10.368;2023-04-21T08:52:28;98323.94;;;12.81;67.02
75317;BME280;63913;51.492;10.368;2023-04-21T08:54:54;98327.56;;;12.98;66.31
75317;BME280;63913;51.492;10.368;2023-04-21T08:57:20;98322.78;;;13.38;64.65
75317;BME280;63913;51.492;10.368;2023-04-21T08:59:46;98328.19;;;13.68;64.23
75317;BME280;63913;51.492;10.368;2023-04-21T09:02:12;98326.53;;;13.77;63.53
75317;BME280;63913;51.492;10.368;2023-04-21T09:04:43;98333.50;;;13.90;62.87
75317;BME280;63913;51.492;10.368;2023-04-21T09:07:09;98336.91;;;13.87;62.42
75317;BME280;63913;51.492;10.368;2023-04-21T09:09:54;98313.75;;;14.04;61.93
75317;BME280;63913;51.492;10.368;2023-04-21T09:12:21;98333.75;;;14.34;62.17
75317;BME280;63913;51.492;10.368;2023-04-21T09:14:47;98313.19;;;14.63;60.63
75317;BME280;63913;51.492;10.368;2023-04-21T09:17:15;98320.13;;;14.77;61.04
75317;BME280;63913;51.492;10.368;2023-04-21T09:19:41;98323.63;;;14.95;60.44
75317;BME280;63913;51.492;10.368;2023-04-21T09:22:06;98329.69;;;15.09;58.51
75317;BME280;63913;51.492;10.368;2023-04-21T09:24:31;98322.81;;;15.34;57.38
75317;BME280;63913;51.492;10.368;2023-04-21T09:26:57;98321.97;;;15.53;56.32
75317;BME280;63913;51.492;10.368;2023-04-21T09:29:23;98309.88;;;15.59;56.89
75317;BME280;63913;51.492;10.368;2023-04-21T09:31:49;98317.69;;;15.55;56.43
75317;BME280;63913;51.492;10.368;2023-04-21T09:34:20;98308.09;;;15.99;56.36
75317;BME280;63913;51.492;10.368;2023-04-21T09:36:47;98309.81;;;16.03;56.93
75317;BME280;63913;51.492;10.368;2023-04-21T09:39:13;98313.25;;;16.12;55.60
75317;BME280;63913;51.492;10.368;2023-04-21T09:41:38;98299.25;;;16.61;55.53
75317;BME280;63913;51.492;10.368;2023-04-21T09:44:04;98309.53;;;16.79;54.23
75317;BME280;63913;51.492;10.368;2023-04-21T09:46:32;98303.47;;;16.85;53.44
75317;BME280;63913;51.492;10.368;2023-04-21T09:49:02;98300.97;;;16.59;54.19
75317;BME280;63913;51.492;10.368;2023-04-21T09:51:29;98294.91;;;16.68;53.54
75317;BME280;63913;51.492;10.368;2023-04-21T09:53:58;98303.38;;;16.97;52.88
75317;BME280;63913;51.492;10.368;2023-04-21T09:56:26;98296.44;;;17.01;52.26
75317;BME280;63913;51.492;10.368;2023-04-21T09:58:56;98300.81;;;16.87;52.32
75317;BME280;63913;51.492;10.368;2023-04-21T10:01:25;98294.59;;;17.13;52.40
75317;BME280;63913;51.492;10.368;2023-04-21T10:03:51;98300.66;;;17.12;51.66
75317;BME280;63913;51.492;10.368;2023-04-21T10:06:18;98294.28;;;17.53;51.58
75317;BME280;63913;51.492;10.368;2023-04-21T10:08:43;98291.78;;;17.42;50.38
75317;BME280;63913;51.492;10.368;2023-04-21T10:11:10;98285.56;;;17.63;50.65
75317;BME280;63913;51.492;10.368;2023-04-21T10:13:37;98289.91;;;17.58;50.80
75317;BME280;63913;51.492;10.368;2023-04-21T10:16:07;98294.94;;;17.81;50.36
75317;BME280;63913;51.492;10.368;2023-04-21T10:18:37;98279.41;;;17.73;49.90
75317;BME280;63913;51.492;10.368;2023-04-21T10:21:08;98275.09;;;17.71;50.49
75317;BME280;63913;51.492;10.368;2023-04-21T10:23:37;98257.81;;;17.67;48.57
75317;BME280;63913;51.492;10.368;2023-04-21T10:26:06;98252.56;;;17.70;48.76
75317;BME280;63913;51.492;10.368;2023-04-21T10:28:58;98261.13;;;17.78;49.05
75317;BME280;63913;51.492;10.368;2023-04-21T10:39:32;98244.97;;;18.26;47.45
75317;BME280;63913;51.492;10.368;2023-04-21T10:44:50;98245.44;;;18.59;47.41
75317;BME280;63913;51.492;10.368;2023-04-21T10:47:40;98234.00;;;18.71;46.95
75317;BME280;63913;51.492;10.368;2023-04-21T10:50:21;98237.22;;;18.88;46.17
75317;BME280;63913;51.492;10.368;2023-04-21T10:52:59;98242.97;;;18.48;47.23
75317;BME280;63913;51.492;10.368;2023-04-21T10:55:30;98243.75;;;18.55;46.74
75317;BME280;63913;51.492;10.368;2023-04-21T10:57:56;98233.88;;;18.78;46.60
75317;BME280;63913;51.492;10.368;2023-04-21T11:00:23;98216.41;;;18.86;45.33
75317;BME280;63913;51.492;10.368;2023-04-21T11:03:01;98220.59;;;18.96;45.31
75317;BME280;63913;51.492;10.368;2023-04-21T11:05:37;98214.78;;;18.78;44.54
75317;BME280;63913;51.492;10.368;2023-04-21T11:08:05;98216.13;;;19.04;46.23
75317;BME280;63913;51.492;10.368;2023-04-21T11:10:50;98208.16;;;18.55;45.70
75317;BME280;63913;51.492;10.368;2023-04-21T11:13:16;98199.03;;;18.87;44.88
75317;BME280;63913;51.492;10.368;2023-04-21T11:16:13;98200.41;;;19.08;44.33
75317;BME280;63913;51.492;10.368;2023-04-21T11:18:41;98190.69;;;19.17;44.79
75317;BME280;63913;51.492;10.368;2023-04-21T11:21:15;98193.94;;;19.30;43.04
75317;BME280;63913;51.492;10.368;2023-04-21T11:23:49;98202.13;;;19.61;43.54
75317;BME280;63913;51.492;10.368;2023-04-21T11:26:16;98183.06;;;19.56;43.96
75317;BME280;63913;51.492;10.368;2023-04-21T11:28:42;98180.28;;;19.66;43.12
75317;BME280;63913;51.492;10.368;2023-04-21T11:31:07;98192.78;;;19.48;43.66
75317;BME280;63913;51.492;10.368;2023-04-21T11:33:39;98174.19;;;19.66;41.59
75317;BME280;63913;51.492;10.368;2023-04-21T11:36:05;98176.78;;;19.67;41.58
75317;BME280;63913;51.492;10.368;2023-04-21T11:38:40;98171.00;;;19.52;41.73
75317;BME280;63913;51.492;10.368;2023-04-21T11:41:07;98164.09;;;19.92;42.81
75317;BME280;63913;51.492;10.368;2023-04-21T11:43:34;98163.75;;;20.09;42.04
75317;BME280;63913;51.492;10.368;2023-04-21T11:46:15;98170.28;;;20.28;40.67
75317;BME280;63913;51.492;10.368;2023-04-21T11:48:42;98160.88;;;20.21;41.06
75317;BME280;63913;51.492;10.368;2023-04-21T11:51:13;98163.09;;;20.41;41.33
75317;BME280;63913;51.492;10.368;2023-04-21T11:53:39;98157.34;;;20.24;39.69
75317;BME280;63913;51.492;10.368;2023-04-21T11:56:05;98155.63;;;20.23;40.08
75317;BME280;63913;51.492;10.368;2023-04-21T11:58:30;98150.72;;;20.09;39.84
75317;BME280;63913;51.492;10.368;2023-04-21T12:00:56;98160.69;;;20.29;40.62
75317;BME280;63913;51.492;10.368;2023-04-21T12:03:21;98166.06;;;20.23;40.33
75317;BME280;63913;51.492;10.368;2023-04-21T12:05:55;98157.81;;;20.02;40.34
75317;BME280;63913;51.492;10.368;2023-04-21T12:08:21;98161.00;;;20.15;41.41
75317;BME280;63913;51.492;10.368;2023-04-21T12:10:47;98170.00;;;20.02;40.68
75317;BME280;63913;51.492;10.368;2023-04-21T12:13:21;98165.75;;;19.96;41.48
75317;BME280;63913;51.492;10.368;2023-04-21T12:15:47;98166.78;;;19.43;42.36
75317;BME280;63913;51.492;10.368;2023-04-21T12:18:13;98170.25;;;18.93;43.48
75317;BME280;63913;51.492;10.368;2023-04-21T12:20:47;98172.22;;;18.80;43.02
75317;BME280;63913;51.492;10.368;2023-04-21T12:23:13;98171.97;;;18.94;43.25
75317;BME280;63913;51.492;10.368;2023-04-21T12:25:38;98154.34;;;19.59;42.21
75317;BME280;63913;51.492;10.368;2023-04-21T12:28:07;98171.25;;;20.24;41.70
75317;BME280;63913;51.492;10.368;2023-04-21T12:30:32;98152.91;;;20.27;41.67
75317;BME280;63913;51.492;10.368;2023-04-21T12:32:58;98161.06;;;20.52;41.23
75317;BME280;63913;51.492;10.368;2023-04-21T12:35:24;98162.81;;;20.53;40.04
75317;BME280;63913;51.492;10.368;2023-04-21T12:37:50;98170.72;;;20.50;39.39
75317;BME280;63913;51.492;10.368;2023-04-21T12:40:15;98157.16;;;20.34;41.02
75317;BME280;63913;51.492;10.368;2023-04-21T12:42:41;98157.19;;;19.90;40.35
75317;BME280;63913;51.492;10.368;2023-04-21T12:45:06;98155.34;;;20.36;39.87
75317;BME280;63913;51.492;10.368;2023-04-21T12:47:34;98149.34;;;19.91;40.20
75317;BME280;63913;51.492;10.368;2023-04-21T12:50:01;98145.00;;;20.30;39.48
75317;BME280;63913;51.492;10.368;2023-04-21T12:52:26;98143.28;;;20.29;39.36
75317;BME280;63913;51.492;10.368;2023-04-21T12:54:51;98157.22;;;19.88;40.92
75317;BME280;63913;51.492;10.368;2023-04-21T12:57:22;98145.63;;;19.60;41.18
75317;BME280;63913;51.492;10.368;2023-04-21T12:59:50;98147.19;;;19.70;42.65
75317;BME280;63913;51.492;10.368;2023-04-21T13:02:15;98147.25;;;20.07;40.58
75317;BME280;63913;51.492;10.368;2023-04-21T13:04:41;98143.22;;;20.32;40.32